createdAt,value
2017-09-30T00:02:14.695Z,30.33
2017-09-30T00:04:42.339Z,28.13
2017-09-30T00:07:09.957Z,26.93
2017-09-30T00:09:37.595Z,29.53
2017-09-30T00:12:05.303Z,28.67
2017-09-30T00:14:32.958Z,30.03
2017-09-30T00:17:01.163Z,27.73
2017-09-30T00:19:28.816Z,28.20
2017-09-30T00:21:56.463Z,25.40
2017-09-30T00:24:24.151Z,30.80
2017-09-30T00:26:51.796Z,31.87
2017-09-30T00:29:19.471Z,30.93
2017-09-30T00:31:47.117Z,31.63
2017-09-30T00:34:14.728Z,31.10
2017-09-30T00:36:42.393Z,36.83
2017-09-30T00:42:01.006Z,36.93
2017-09-30T00:44:28.651Z,37.43
2017-09-30T00:46:57.096Z,39.97
2017-09-30T00:49:24.774Z,38.43
2017-09-30T00:51:52.436Z,24.70
2017-09-30T00:54:20.075Z,33.77
2017-09-30T00:56:47.771Z,34.83
2017-09-30T00:59:16.250Z,28.60
2017-09-30T01:01:44.682Z,30.97
2017-09-30T01:04:12.346Z,37.00
2017-09-30T01:06:39.990Z,32.30
2017-09-30T01:09:07.707Z,28.67
2017-09-30T01:11:36.168Z,25.13
2017-09-30T01:14:03.824Z,26.57
2017-09-30T01:16:31.474Z,30.70
2017-09-30T01:18:59.169Z,27.03
2017-09-30T01:21:26.822Z,35.03
2017-09-30T01:23:54.486Z,32.23
2017-09-30T01:26:22.200Z,32.63
2017-09-30T01:28:49.885Z,36.87
2017-09-30T01:31:17.552Z,34.80
2017-09-30T01:33:45.228Z,38.67
2017-09-30T01:36:12.893Z,38.07
2017-09-30T01:38:40.559Z,31.33
2017-09-30T01:41:08.269Z,49.40
2017-09-30T01:43:35.918Z,35.87
2017-09-30T01:46:04.381Z,27.97
2017-09-30T01:48:32.494Z,31.73
2017-09-30T01:51:00.525Z,32.23
2017-09-30T01:53:28.978Z,30.37
2017-09-30T01:55:56.687Z,32.93
2017-09-30T01:58:25.101Z,39.00
2017-09-30T02:00:52.745Z,37.07
2017-09-30T02:03:21.171Z,30.10
2017-09-30T02:05:48.840Z,37.17
2017-09-30T02:08:16.484Z,31.80
2017-09-30T02:10:44.196Z,34.43
2017-09-30T02:13:11.851Z,31.47
2017-09-30T02:15:39.467Z,38.60
2017-09-30T02:18:07.095Z,33.80
2017-09-30T02:20:35.654Z,30.37
2017-09-30T02:23:03.476Z,37.77
2017-09-30T02:25:31.102Z,32.37
2017-09-30T02:27:59.573Z,29.67
2017-09-30T02:30:27.199Z,36.50
2017-09-30T02:32:54.872Z,38.80
2017-09-30T02:35:22.521Z,37.87
2017-09-30T02:37:50.166Z,30.40
2017-09-30T02:40:17.806Z,34.17
2017-09-30T02:42:46.216Z,32.07
2017-09-30T02:45:13.900Z,32.87
2017-09-30T02:47:41.570Z,34.07
2017-09-30T02:50:09.276Z,32.13
2017-09-30T02:52:37.848Z,28.10
2017-09-30T02:55:06.264Z,35.93
2017-09-30T02:57:33.920Z,32.90
2017-09-30T03:00:01.568Z,29.93
2017-09-30T03:02:29.934Z,34.97
2017-09-30T03:04:58.382Z,36.00
2017-09-30T03:07:26.040Z,35.80
2017-09-30T03:09:53.650Z,37.27
2017-09-30T03:12:22.050Z,40.73
2017-09-30T03:14:49.668Z,44.20
2017-09-30T03:17:17.759Z,34.23
2017-09-30T03:19:45.421Z,43.00
2017-09-30T03:22:14.008Z,44.10
2017-09-30T03:24:42.400Z,34.50
2017-09-30T03:27:10.036Z,31.20
2017-09-30T03:29:38.454Z,38.03
2017-09-30T03:32:06.073Z,31.97
2017-09-30T03:34:33.742Z,40.00
2017-09-30T03:37:01.413Z,37.10
2017-09-30T03:39:29.808Z,31.43
2017-09-30T03:41:57.539Z,34.60
2017-09-30T03:44:25.140Z,34.57
2017-09-30T03:46:52.813Z,38.83
2017-09-30T03:49:20.454Z,36.43
2017-09-30T03:51:48.077Z,34.47
2017-09-30T03:54:15.732Z,44.20
2017-09-30T03:56:43.437Z,38.63
2017-09-30T03:59:11.923Z,43.23
2017-09-30T04:01:39.540Z,38.90
2017-09-30T04:04:07.208Z,39.97
2017-09-30T04:06:34.851Z,35.63
2017-09-30T04:09:02.494Z,35.20
2017-09-30T04:11:30.132Z,32.77
2017-09-30T04:13:58.530Z,36.47
2017-09-30T04:16:26.650Z,32.07
2017-09-30T04:18:54.276Z,34.70
2017-09-30T04:21:21.913Z,34.30
2017-09-30T04:23:50.339Z,31.33
2017-09-30T04:26:17.979Z,36.00
2017-09-30T04:28:45.661Z,35.50
2017-09-30T04:31:13.323Z,39.23
2017-09-30T04:33:40.919Z,31.67
2017-09-30T04:36:08.565Z,31.10
2017-09-30T04:38:36.426Z,37.67
2017-09-30T04:41:04.061Z,34.10
2017-09-30T04:43:31.723Z,40.10
2017-09-30T04:45:59.431Z,30.50
2017-09-30T04:48:27.055Z,41.40
2017-09-30T04:50:54.684Z,39.63
2017-09-30T04:53:23.105Z,39.03
2017-09-30T04:55:51.563Z,36.57
2017-09-30T04:58:19.225Z,39.03
2017-09-30T05:00:46.866Z,31.70
2017-09-30T05:03:14.551Z,34.93
2017-09-30T05:05:42.202Z,38.93
2017-09-30T05:08:09.902Z,32.97
2017-09-30T05:10:37.537Z,36.10
2017-09-30T05:13:05.151Z,37.03
2017-09-30T05:15:32.837Z,35.43
2017-09-30T05:18:01.249Z,33.03
2017-09-30T05:20:29.008Z,44.33
2017-09-30T05:22:56.681Z,37.20
2017-09-30T05:25:24.624Z,50.37
2017-09-30T05:27:53.003Z,41.60
2017-09-30T05:30:20.709Z,39.07
2017-09-30T05:32:48.334Z,38.00
2017-09-30T05:35:16.018Z,45.00
2017-09-30T05:37:43.648Z,40.37
2017-09-30T05:40:11.320Z,37.60
2017-09-30T05:42:38.967Z,40.10
2017-09-30T05:45:07.387Z,34.70
2017-09-30T05:47:35.080Z,38.60
2017-09-30T05:50:02.724Z,35.03
2017-09-30T05:52:30.397Z,34.40
2017-09-30T05:54:58.061Z,38.47
2017-09-30T05:57:25.736Z,32.10
2017-09-30T05:59:53.509Z,35.83
2017-09-30T06:02:25.236Z,41.07
2017-09-30T06:04:53.806Z,36.20
2017-09-30T06:07:21.436Z,39.20
2017-09-30T06:09:49.842Z,36.30
2017-09-30T06:12:17.540Z,32.00
2017-09-30T06:14:45.189Z,29.37
2017-09-30T06:17:17.775Z,32.13
2017-09-30T06:19:45.430Z,25.23
2017-09-30T06:22:13.840Z,27.10
2017-09-30T06:24:41.480Z,28.07
2017-09-30T06:27:09.158Z,28.90
2017-09-30T06:29:36.788Z,28.50
2017-09-30T06:32:04.535Z,36.80
2017-09-30T06:34:32.202Z,33.03
2017-09-30T06:36:59.843Z,33.57
2017-09-30T06:39:28.322Z,29.60
2017-09-30T06:41:56.714Z,30.87
2017-09-30T06:44:24.386Z,27.67
2017-09-30T06:46:52.060Z,25.80
2017-09-30T06:49:19.676Z,29.87
2017-09-30T06:51:48.097Z,31.30
2017-09-30T06:54:15.803Z,26.87
2017-09-30T06:56:43.422Z,28.87
2017-09-30T06:59:11.188Z,35.20
2017-09-30T07:01:38.940Z,27.43
2017-09-30T07:04:06.581Z,28.33
2017-09-30T07:06:35.048Z,33.93
2017-09-30T07:09:02.933Z,28.20
2017-09-30T07:11:30.634Z,31.17
2017-09-30T07:13:58.266Z,24.60
2017-09-30T07:16:25.995Z,27.13
2017-09-30T07:18:53.615Z,28.33
2017-09-30T07:21:21.680Z,28.70
2017-09-30T07:23:49.382Z,31.03
2017-09-30T07:26:17.016Z,32.37
2017-09-30T07:28:44.660Z,34.40
2017-09-30T07:31:12.374Z,29.90
2017-09-30T07:33:40.073Z,26.20
2017-09-30T07:36:08.496Z,28.30
2017-09-30T07:38:36.124Z,27.03
2017-09-30T07:41:03.760Z,25.50
2017-09-30T07:43:31.385Z,26.50
2017-09-30T07:45:59.047Z,30.07
2017-09-30T07:48:26.738Z,28.43
2017-09-30T07:50:54.368Z,22.93
2017-09-30T07:53:22.056Z,24.87
2017-09-30T07:55:49.692Z,23.03
2017-09-30T07:58:17.372Z,28.33
2017-09-30T08:00:45.022Z,23.73
2017-09-30T08:03:12.675Z,25.63
2017-09-30T08:05:40.313Z,17.40
2017-09-30T08:08:07.952Z,15.23
2017-09-30T08:10:36.388Z,29.77
2017-09-30T08:13:04.014Z,18.40
2017-09-30T08:15:32.440Z,18.90
2017-09-30T08:18:00.133Z,20.03
2017-09-30T08:20:28.771Z,17.33
2017-09-30T08:22:56.404Z,19.67
2017-09-30T08:25:24.035Z,19.30
2017-09-30T08:27:51.698Z,15.67
2017-09-30T08:30:19.357Z,17.67
2017-09-30T08:32:46.995Z,16.63
2017-09-30T08:35:14.637Z,16.27
2017-09-30T08:37:42.305Z,17.90
2017-09-30T08:40:09.948Z,15.60
2017-09-30T08:42:37.553Z,19.53
2017-09-30T08:45:05.322Z,13.90
2017-09-30T08:47:32.955Z,18.77
2017-09-30T08:50:00.586Z,20.63
2017-09-30T08:52:29.261Z,11.63
2017-09-30T08:54:56.905Z,13.33
2017-09-30T08:57:24.513Z,15.53
2017-09-30T08:59:52.190Z,13.77
2017-09-30T09:02:19.826Z,13.77
2017-09-30T09:04:47.484Z,15.97
2017-09-30T09:07:15.908Z,15.20
2017-09-30T09:09:43.635Z,13.60
2017-09-30T09:12:12.032Z,22.50
2017-09-30T09:14:39.654Z,14.50
2017-09-30T09:17:07.291Z,19.53
2017-09-30T09:19:35.001Z,13.10
2017-09-30T09:22:02.720Z,10.30
2017-09-30T09:24:30.595Z,14.10
2017-09-30T09:26:58.299Z,17.17
2017-09-30T09:29:26.689Z,12.43
2017-09-30T09:31:54.315Z,13.73
2017-09-30T09:34:22.478Z,11.90
2017-09-30T09:36:50.139Z,18.13
2017-09-30T09:39:17.785Z,11.63
2017-09-30T09:41:45.387Z,17.50
2017-09-30T09:44:13.759Z,15.97
2017-09-30T09:46:41.409Z,17.40
2017-09-30T09:49:09.139Z,13.57
2017-09-30T09:51:36.741Z,13.53
2017-09-30T09:54:04.835Z,14.70
2017-09-30T09:56:33.194Z,12.53
2017-09-30T09:59:00.799Z,14.60
2017-09-30T10:01:28.445Z,12.40
2017-09-30T10:03:56.813Z,14.13
2017-09-30T10:06:25.387Z,15.57
2017-09-30T10:08:53.531Z,15.30
2017-09-30T10:11:22.024Z,14.13
2017-09-30T10:13:49.701Z,14.70
2017-09-30T10:16:17.323Z,17.60
2017-09-30T10:18:46.591Z,14.20
2017-09-30T10:21:14.977Z,11.13
2017-09-30T10:23:42.689Z,17.63
2017-09-30T10:26:10.303Z,18.03
2017-09-30T10:28:37.897Z,15.33
2017-09-30T10:31:05.565Z,13.27
2017-09-30T10:33:34.866Z,10.47
2017-09-30T10:36:02.734Z,17.83
2017-09-30T10:38:32.328Z,16.50
2017-09-30T10:40:59.981Z,13.17
2017-09-30T10:43:29.971Z,17.10
2017-09-30T10:45:58.332Z,13.70
2017-09-30T10:48:29.896Z,14.67
2017-09-30T10:50:58.271Z,12.40
2017-09-30T10:53:27.627Z,11.67
2017-09-30T10:55:55.273Z,11.60
2017-09-30T10:58:26.477Z,16.80
2017-09-30T11:00:54.235Z,12.37
2017-09-30T11:03:25.394Z,8.90
2017-09-30T11:05:52.995Z,10.60
2017-09-30T11:08:20.909Z,11.30
2017-09-30T11:10:48.893Z,10.20
2017-09-30T11:13:16.519Z,22.97
2017-09-30T11:15:44.186Z,10.10
2017-09-30T11:18:11.829Z,12.50
2017-09-30T11:20:39.426Z,14.03
2017-09-30T11:23:07.059Z,13.80
2017-09-30T11:25:34.667Z,9.50
2017-09-30T11:28:03.036Z,8.60
2017-09-30T11:30:32.793Z,11.83
2017-09-30T11:33:00.447Z,13.53
2017-09-30T11:35:29.280Z,10.93
2017-09-30T11:37:56.912Z,8.90
2017-09-30T11:40:24.529Z,8.63
2017-09-30T11:42:54.448Z,8.63
2017-09-30T11:45:22.098Z,11.00
2017-09-30T11:47:50.502Z,10.30
2017-09-30T11:50:18.175Z,12.40
2017-09-30T11:52:46.239Z,21.40
2017-09-30T11:55:14.538Z,9.67
2017-09-30T11:57:42.151Z,14.53
2017-09-30T12:00:09.819Z,12.93
2017-09-30T12:02:37.563Z,13.27
2017-09-30T12:05:05.176Z,15.53
2017-09-30T12:07:32.811Z,11.33
2017-09-30T12:10:01.200Z,11.40
2017-09-30T12:12:29.557Z,10.30
2017-09-30T12:14:57.203Z,8.63
2017-09-30T12:17:24.804Z,10.20
2017-09-30T12:19:53.204Z,8.30
2017-09-30T12:22:22.312Z,11.90
2017-09-30T12:24:50.892Z,9.70
2017-09-30T12:27:18.634Z,8.37
2017-09-30T12:29:47.140Z,8.80
2017-09-30T12:32:14.872Z,11.60
2017-09-30T12:34:43.260Z,12.27
2017-09-30T12:37:11.705Z,13.53
2017-09-30T12:39:39.335Z,7.60
2017-09-30T12:42:07.021Z,9.70
2017-09-30T12:44:34.651Z,10.60
2017-09-30T12:47:02.275Z,8.43
2017-09-30T12:49:31.391Z,7.97
2017-09-30T12:51:59.776Z,7.70
2017-09-30T12:54:27.404Z,9.67
2017-09-30T12:56:55.070Z,11.30
2017-09-30T12:59:23.476Z,11.57
2017-09-30T13:01:51.068Z,9.10
2017-09-30T13:04:18.718Z,11.60
2017-09-30T13:06:46.332Z,8.57
2017-09-30T13:09:13.975Z,8.60
2017-09-30T13:11:42.441Z,17.53
2017-09-30T13:14:10.202Z,11.57
2017-09-30T13:16:37.784Z,8.93
2017-09-30T13:19:06.053Z,13.53
2017-09-30T13:21:33.643Z,8.97
2017-09-30T13:24:01.267Z,16.43
2017-09-30T13:26:28.924Z,9.60
2017-09-30T13:28:56.522Z,15.27
2017-09-30T13:31:24.200Z,13.43
2017-09-30T13:33:52.583Z,7.93
2017-09-30T13:36:20.944Z,6.63
2017-09-30T13:38:48.532Z,8.90
2017-09-30T13:41:16.967Z,7.20
2017-09-30T13:43:44.570Z,11.53
2017-09-30T13:46:12.929Z,7.33
2017-09-30T13:48:40.565Z,7.77
2017-09-30T13:51:08.186Z,9.23
2017-09-30T13:53:35.796Z,11.63
2017-09-30T13:56:03.423Z,9.97
2017-09-30T13:58:31.051Z,9.30
2017-09-30T14:00:59.429Z,8.43
2017-09-30T14:03:27.823Z,7.70
2017-09-30T14:05:56.184Z,9.90
2017-09-30T14:08:23.787Z,9.90
2017-09-30T14:10:51.444Z,9.73
2017-09-30T14:13:19.064Z,10.20
2017-09-30T14:15:46.653Z,13.60
2017-09-30T14:18:15.063Z,10.27
2017-09-30T14:20:42.701Z,9.00
2017-09-30T14:23:10.294Z,8.90
2017-09-30T14:25:37.947Z,8.90
2017-09-30T14:28:05.550Z,8.67
2017-09-30T14:30:33.821Z,13.43
2017-09-30T14:33:03.202Z,11.67
2017-09-30T14:35:30.823Z,7.50
2017-09-30T14:37:58.454Z,12.43
2017-09-30T14:40:26.073Z,8.83
2017-09-30T14:42:54.606Z,7.73
2017-09-30T14:45:22.234Z,7.57
2017-09-30T14:47:49.832Z,12.10
2017-09-30T14:50:17.462Z,10.80
2017-09-30T14:52:45.073Z,7.83
2017-09-30T14:55:12.685Z,8.40
2017-09-30T14:57:40.320Z,8.00
2017-09-30T15:00:07.932Z,11.80
2017-09-30T15:02:35.518Z,7.20
2017-09-30T15:05:03.902Z,13.20
2017-09-30T15:07:35.076Z,9.53
2017-09-30T15:10:02.655Z,11.10
2017-09-30T15:12:30.270Z,9.10
2017-09-30T15:14:57.860Z,10.57
2017-09-30T15:17:25.593Z,12.67
2017-09-30T15:19:54.004Z,12.37
2017-09-30T15:22:21.605Z,15.40
2017-09-30T15:24:49.194Z,18.20
2017-09-30T15:27:17.603Z,12.43
2017-09-30T15:29:45.254Z,8.73
2017-09-30T15:32:12.849Z,12.43
2017-09-30T15:34:40.459Z,8.83
2017-09-30T15:37:08.825Z,7.47
2017-09-30T15:39:37.200Z,9.03
2017-09-30T15:42:04.821Z,8.30
2017-09-30T15:44:32.417Z,10.27
2017-09-30T15:47:00.063Z,10.20
2017-09-30T15:49:27.678Z,9.90
2017-09-30T15:51:55.268Z,17.87
2017-09-30T15:54:22.872Z,6.83
2017-09-30T15:56:51.263Z,8.23
2017-09-30T15:59:19.646Z,6.60
2017-09-30T16:01:47.270Z,13.23
2017-09-30T16:04:14.957Z,16.00
2017-09-30T16:06:43.368Z,14.30
2017-09-30T16:09:11.105Z,14.40
2017-09-30T16:11:39.502Z,16.60
2017-09-30T16:14:07.128Z,21.80
2017-09-30T16:16:36.335Z,12.20
2017-09-30T16:19:03.951Z,11.70
2017-09-30T16:21:31.583Z,9.90
2017-09-30T16:23:59.935Z,10.83
2017-09-30T16:26:27.542Z,10.43
2017-09-30T16:28:55.183Z,11.23
2017-09-30T16:31:24.343Z,11.10
2017-09-30T16:33:51.948Z,10.33
2017-09-30T16:36:19.576Z,10.30
2017-09-30T16:38:47.177Z,11.13
2017-09-30T16:41:14.863Z,16.20
2017-09-30T16:43:42.543Z,15.70
2017-09-30T16:46:10.308Z,8.50
2017-09-30T16:48:37.922Z,7.17
2017-09-30T16:51:05.524Z,12.10
2017-09-30T16:53:33.149Z,8.47
2017-09-30T16:56:00.743Z,10.40
2017-09-30T16:58:28.319Z,9.90
2017-09-30T17:00:55.935Z,9.00
2017-09-30T17:03:24.094Z,9.43
2017-09-30T17:05:52.466Z,10.77
2017-09-30T17:08:22.034Z,8.27
2017-09-30T17:10:49.871Z,11.93
2017-09-30T17:16:07.765Z,20.50
2017-09-30T17:18:35.351Z,11.70
2017-09-30T17:21:02.933Z,7.73
2017-09-30T17:23:31.345Z,12.13
2017-09-30T17:28:49.459Z,10.63
2017-09-30T17:31:17.860Z,9.30
2017-09-30T17:33:45.494Z,9.00
2017-09-30T17:36:13.156Z,12.37
2017-09-30T17:38:41.501Z,9.90
2017-09-30T17:41:09.103Z,13.40
2017-09-30T17:43:37.535Z,8.63
2017-09-30T17:46:05.138Z,8.33
2017-09-30T17:48:32.732Z,15.70
2017-09-30T17:51:00.365Z,11.40
2017-09-30T17:53:28.743Z,13.97
2017-09-30T17:55:57.126Z,10.27
2017-09-30T17:58:25.532Z,9.40
2017-09-30T18:00:53.137Z,13.20
2017-09-30T18:03:20.727Z,12.17
2017-09-30T18:05:49.106Z,13.30
2017-09-30T18:08:17.466Z,12.47
2017-09-30T18:10:45.082Z,9.03
2017-09-30T18:13:12.692Z,9.67
2017-09-30T18:15:40.283Z,11.93
2017-09-30T18:18:08.645Z,11.00
2017-09-30T18:20:36.259Z,11.13
2017-09-30T18:23:05.473Z,8.33
2017-09-30T18:25:33.071Z,9.47
2017-09-30T18:28:01.447Z,12.73
2017-09-30T18:30:29.088Z,13.03
2017-09-30T18:32:56.683Z,9.70
2017-09-30T18:35:25.084Z,9.80
2017-09-30T18:37:52.714Z,14.30
2017-09-30T18:40:21.117Z,14.23
2017-09-30T18:42:48.712Z,13.57
2017-09-30T18:45:16.343Z,10.40
2017-09-30T18:47:43.951Z,17.10
2017-09-30T18:50:11.554Z,11.87
2017-09-30T18:52:39.933Z,14.60
2017-09-30T18:55:08.284Z,10.67
2017-09-30T18:57:36.922Z,9.70
2017-09-30T19:00:04.622Z,14.73
2017-09-30T19:02:33.015Z,16.53
2017-09-30T19:05:00.661Z,9.30
2017-09-30T19:07:28.253Z,12.20
2017-09-30T19:09:56.626Z,10.20
2017-09-30T19:12:25.047Z,9.70
2017-09-30T19:14:52.628Z,10.97
2017-09-30T19:17:20.219Z,15.10
2017-09-30T19:19:47.849Z,11.13
2017-09-30T19:22:15.482Z,13.23
2017-09-30T19:24:43.087Z,13.30
2017-09-30T19:27:10.722Z,10.00
2017-09-30T19:29:38.402Z,10.13
2017-09-30T19:32:06.019Z,10.90
2017-09-30T19:34:34.381Z,10.67
2017-09-30T19:37:02.017Z,11.03
2017-09-30T19:39:29.599Z,12.73
2017-09-30T19:41:57.190Z,12.60
2017-09-30T19:44:24.869Z,12.23
2017-09-30T19:46:52.481Z,17.60
2017-09-30T19:49:20.121Z,12.33
2017-09-30T19:51:47.788Z,12.37
2017-09-30T19:54:15.378Z,16.37
2017-09-30T19:56:43.730Z,11.73
2017-09-30T19:59:11.358Z,12.10
2017-09-30T20:01:38.930Z,12.50
2017-09-30T20:04:06.571Z,11.13
2017-09-30T20:06:34.157Z,11.13
2017-09-30T20:09:01.759Z,10.40
2017-09-30T20:11:29.358Z,12.70
2017-09-30T20:13:56.968Z,16.23
2017-09-30T20:19:15.690Z,14.90
2017-09-30T20:21:43.309Z,17.33
2017-09-30T20:24:10.967Z,15.90
2017-09-30T20:26:38.585Z,16.20
2017-09-30T20:29:06.175Z,14.63
2017-09-30T20:31:33.832Z,19.57
2017-09-30T20:36:53.263Z,15.00
2017-09-30T20:39:21.903Z,14.23
2017-09-30T20:41:49.821Z,20.20
2017-09-30T20:44:18.209Z,14.23
2017-09-30T20:46:46.616Z,18.37
2017-09-30T20:49:14.227Z,13.77
2017-09-30T20:51:41.831Z,15.80
2017-09-30T20:54:09.444Z,13.50
2017-09-30T20:56:37.782Z,15.63
2017-09-30T20:59:05.674Z,18.40
2017-09-30T21:01:34.124Z,14.60
2017-09-30T21:04:02.055Z,17.33
2017-09-30T21:06:30.375Z,14.83
2017-09-30T21:08:58.564Z,12.63
2017-09-30T21:11:27.316Z,15.40
2017-09-30T21:13:55.272Z,15.90
2017-09-30T21:16:27.406Z,15.57
2017-09-30T21:18:55.947Z,13.30
2017-09-30T21:21:23.592Z,14.20
2017-09-30T21:23:52.046Z,17.23
2017-09-30T21:26:19.955Z,14.80
2017-09-30T21:28:47.656Z,13.97
2017-09-30T21:31:15.285Z,18.53
2017-09-30T21:33:43.419Z,19.40
2017-09-30T21:36:11.836Z,15.03
2017-09-30T21:38:40.637Z,14.93
2017-09-30T21:41:10.356Z,16.90
2017-09-30T21:43:39.074Z,17.27
2017-09-30T21:46:07.832Z,16.40
2017-09-30T21:48:40.440Z,16.93
2017-09-30T21:51:08.240Z,16.33
2017-09-30T21:53:37.005Z,12.53
2017-09-30T21:56:06.849Z,15.70
2017-09-30T21:58:34.514Z,15.90
2017-09-30T22:01:02.148Z,19.17
2017-09-30T22:03:30.621Z,14.50
2017-09-30T22:05:58.283Z,18.03
2017-09-30T22:08:25.975Z,16.73
2017-09-30T22:10:53.649Z,16.37
2017-09-30T22:13:22.435Z,15.00
2017-09-30T22:15:51.480Z,16.03
2017-09-30T22:18:19.276Z,17.17
2017-09-30T22:20:47.075Z,14.07
2017-09-30T22:23:15.390Z,14.90
2017-09-30T22:25:47.283Z,16.50
2017-09-30T22:28:15.046Z,16.80
2017-09-30T22:30:43.608Z,16.43
2017-09-30T22:33:11.321Z,17.53
2017-09-30T22:35:39.257Z,19.47
2017-09-30T22:38:06.911Z,16.00
2017-09-30T22:40:34.600Z,23.70
2017-09-30T22:43:02.267Z,18.20
2017-09-30T22:45:29.965Z,16.90
2017-09-30T22:47:57.677Z,19.50
2017-09-30T22:50:26.121Z,16.53
2017-09-30T22:52:53.851Z,15.00
2017-09-30T22:55:21.607Z,19.10
2017-09-30T22:57:50.525Z,16.77
2017-09-30T23:00:18.235Z,17.77
2017-09-30T23:02:46.960Z,20.20
2017-09-30T23:05:14.691Z,22.77
2017-09-30T23:07:43.151Z,15.73
2017-09-30T23:10:11.719Z,34.93
2017-09-30T23:12:40.055Z,30.83
2017-09-30T23:15:08.043Z,39.00
2017-09-30T23:17:35.754Z,23.27
2017-09-30T23:20:03.415Z,24.80
2017-09-30T23:22:31.102Z,23.90
2017-09-30T23:24:58.868Z,24.77
2017-09-30T23:27:26.599Z,18.90
2017-09-30T23:29:54.252Z,21.53
2017-09-30T23:32:21.928Z,16.33
2017-09-30T23:34:49.827Z,20.33
2017-09-30T23:37:19.344Z,16.13
2017-09-30T23:39:47.461Z,19.30
2017-09-30T23:42:15.238Z,21.73
2017-09-30T23:44:42.901Z,23.17
2017-09-30T23:47:10.607Z,23.20
2017-09-30T23:49:38.322Z,27.30
2017-09-30T23:52:05.997Z,25.27
2017-09-30T23:54:34.463Z,19.93
2017-09-30T23:57:02.159Z,21.40
2017-09-30T23:59:30.576Z,19.93
